createdAt,value
2022-12-01T00:01:09.587Z,2.10
2022-12-01T00:03:36.963Z,2.55
2022-12-01T00:06:06.903Z,2.58
2022-12-01T00:08:34.425Z,2.50
2022-12-01T00:11:14.493Z,2.80
2022-12-01T00:13:41.252Z,2.42
2022-12-01T00:16:13.134Z,2.40
2022-12-01T00:18:40.049Z,2.50
2022-12-01T00:21:13.387Z,3.28
2022-12-01T00:23:47.618Z,3.05
2022-12-01T00:26:15.927Z,2.63
2022-12-01T00:28:42.812Z,3.35
2022-12-01T00:31:10.843Z,2.60
2022-12-01T00:33:38.450Z,2.63
2022-12-01T00:36:08.650Z,2.63
2022-12-01T00:38:36.023Z,2.53
2022-12-01T00:41:03.203Z,2.33
2022-12-01T00:43:30.220Z,2.05
2022-12-01T00:45:57.356Z,1.75
2022-12-01T00:48:24.546Z,2.00
2022-12-01T00:50:55.626Z,1.63
2022-12-01T00:53:23.376Z,1.25
2022-12-01T00:55:50.441Z,1.60
2022-12-01T00:58:17.269Z,1.40
2022-12-01T01:00:44.188Z,1.40
2022-12-01T01:03:12.682Z,1.40
2022-12-01T01:05:41.218Z,1.33
2022-12-01T01:08:09.520Z,1.23
2022-12-01T01:10:47.445Z,1.38
2022-12-01T01:13:15.414Z,1.40
2022-12-01T01:15:42.479Z,0.95
2022-12-01T01:18:11.652Z,1.75
2022-12-01T01:20:38.477Z,1.65
2022-12-01T01:23:05.546Z,1.88
2022-12-01T01:25:33.027Z,2.20
2022-12-01T01:28:00.096Z,2.00
2022-12-01T01:30:27.301Z,1.92
2022-12-01T01:32:54.292Z,1.80
2022-12-01T01:35:21.344Z,1.60
2022-12-01T01:37:50.058Z,2.05
2022-12-01T01:40:17.128Z,1.70
2022-12-01T01:42:43.984Z,1.80
2022-12-01T01:45:29.615Z,1.63
2022-12-01T01:47:59.378Z,1.50
2022-12-01T01:50:28.476Z,1.52
2022-12-01T01:53:10.616Z,1.65
2022-12-01T01:55:37.952Z,1.48
2022-12-01T01:58:09.277Z,1.50
2022-12-01T02:00:38.192Z,1.40
2022-12-01T02:03:05.282Z,1.45
2022-12-01T02:05:35.678Z,1.55
2022-12-01T02:08:03.564Z,1.50
2022-12-01T02:10:58.620Z,1.63
2022-12-01T02:13:55.843Z,1.50
2022-12-01T02:16:37.763Z,1.60
2022-12-01T02:19:33.579Z,2.15
2022-12-01T02:22:23.595Z,2.13
2022-12-01T02:25:37.813Z,2.40
2022-12-01T02:28:04.559Z,2.70
2022-12-01T02:30:58.574Z,2.60
2022-12-01T02:33:58.114Z,2.58
2022-12-01T02:36:24.907Z,2.72
2022-12-01T02:39:14.475Z,2.88
2022-12-01T02:41:48.449Z,3.15
2022-12-01T02:44:27.628Z,3.28
2022-12-01T02:47:03.311Z,3.08
2022-12-01T02:49:41.578Z,4.00
2022-12-01T02:52:11.221Z,3.55
2022-12-01T02:54:38.418Z,4.22
2022-12-01T02:57:05.318Z,3.10
2022-12-01T02:59:32.159Z,3.42
2022-12-01T03:02:13.749Z,3.63
2022-12-01T03:04:52.636Z,3.42
2022-12-01T03:07:38.037Z,3.50
2022-12-01T03:10:12.083Z,3.00
2022-12-01T03:13:19.454Z,2.88
2022-12-01T03:15:58.319Z,3.38
2022-12-01T03:18:43.055Z,2.83
2022-12-01T03:21:21.404Z,2.90
2022-12-01T03:23:52.973Z,3.13
2022-12-01T03:26:23.018Z,2.83
2022-12-01T03:28:56.769Z,3.17
2022-12-01T03:31:30.021Z,3.63
2022-12-01T03:34:02.579Z,3.90
2022-12-01T03:36:33.543Z,4.20
2022-12-01T03:39:04.960Z,5.20
2022-12-01T03:41:37.893Z,5.20
2022-12-01T03:44:16.793Z,5.03
2022-12-01T03:47:04.476Z,4.88
2022-12-01T03:49:31.674Z,5.10
2022-12-01T03:52:16.395Z,5.25
2022-12-01T03:55:06.272Z,5.05
2022-12-01T03:57:44.113Z,4.43
2022-12-01T04:00:12.202Z,4.35
2022-12-01T04:02:39.485Z,4.65
2022-12-01T04:05:09.301Z,4.40
2022-12-01T04:07:37.545Z,5.82
2022-12-01T04:10:05.556Z,6.88
2022-12-01T04:12:35.731Z,5.38
2022-12-01T04:15:05.958Z,5.32
2022-12-01T04:17:32.822Z,6.20
2022-12-01T04:20:00.033Z,6.20
2022-12-01T04:22:27.428Z,5.00
2022-12-01T04:24:54.295Z,5.85
2022-12-01T04:27:21.185Z,5.50
2022-12-01T04:29:48.339Z,4.47
2022-12-01T04:32:15.531Z,4.72
2022-12-01T04:34:42.391Z,5.82
2022-12-01T04:37:10.151Z,5.22
2022-12-01T04:39:37.030Z,5.05
2022-12-01T04:42:05.021Z,5.85
2022-12-01T04:44:35.008Z,5.20
2022-12-01T04:47:03.425Z,6.25
2022-12-01T04:49:30.525Z,5.68
2022-12-01T04:51:57.417Z,6.22
2022-12-01T04:54:25.061Z,5.45
2022-12-01T04:56:52.041Z,5.10
2022-12-01T04:59:18.899Z,4.60
2022-12-01T05:01:48.161Z,4.47
2022-12-01T05:04:15.549Z,4.35
2022-12-01T05:06:42.917Z,3.95
2022-12-01T05:09:17.524Z,3.90
2022-12-01T05:11:45.143Z,4.65
2022-12-01T05:14:12.125Z,5.07
2022-12-01T05:16:39.059Z,4.97
2022-12-01T05:19:25.613Z,5.50
2022-12-01T05:21:52.777Z,5.22
2022-12-01T05:24:20.863Z,6.65
2022-12-01T05:26:47.947Z,6.97
2022-12-01T05:29:15.057Z,6.82
2022-12-01T05:31:41.972Z,6.10
2022-12-01T05:34:09.384Z,5.95
2022-12-01T05:36:36.538Z,6.65
2022-12-01T05:39:04.619Z,6.32
2022-12-01T05:41:31.941Z,7.50
2022-12-01T05:43:59.007Z,6.88
2022-12-01T05:46:26.128Z,5.55
2022-12-01T05:48:52.999Z,4.80
2022-12-01T05:51:19.849Z,5.28
2022-12-01T05:53:46.763Z,5.00
2022-12-01T05:56:13.652Z,4.13
2022-12-01T05:58:40.575Z,3.50
2022-12-01T06:01:07.555Z,3.72
2022-12-01T06:03:34.524Z,3.40
2022-12-01T06:06:01.729Z,5.75
2022-12-01T06:08:28.570Z,4.50
2022-12-01T06:10:55.446Z,4.68
2022-12-01T06:13:22.349Z,6.10
2022-12-01T06:15:58.889Z,6.60
2022-12-01T06:18:27.328Z,5.38
2022-12-01T06:20:54.117Z,5.05
2022-12-01T06:23:21.089Z,5.78
2022-12-01T06:25:48.075Z,5.32
2022-12-01T06:28:15.721Z,4.72
2022-12-01T06:30:42.571Z,4.68
2022-12-01T06:33:09.488Z,4.93
2022-12-01T06:35:36.984Z,5.45
2022-12-01T06:38:03.884Z,7.55
2022-12-01T06:40:30.752Z,6.82
2022-12-01T06:43:02.719Z,5.32
2022-12-01T06:45:30.396Z,5.43
2022-12-01T06:47:57.955Z,4.70
2022-12-01T06:50:25.318Z,4.57
2022-12-01T06:52:52.863Z,4.68
2022-12-01T06:55:19.771Z,4.68
2022-12-01T06:57:46.764Z,4.13
2022-12-01T07:00:14.796Z,3.42
2022-12-01T07:02:42.047Z,3.63
2022-12-01T07:05:09.338Z,4.18
2022-12-01T07:07:37.635Z,4.35
2022-12-01T07:10:04.655Z,3.97
2022-12-01T07:12:31.940Z,4.10
2022-12-01T07:14:58.835Z,4.22
2022-12-01T07:17:25.636Z,4.90
2022-12-01T07:19:52.603Z,3.70
2022-12-01T07:22:19.468Z,4.20
2022-12-01T07:24:46.296Z,4.35
2022-12-01T07:27:13.104Z,3.90
2022-12-01T07:29:39.889Z,3.92
2022-12-01T07:32:06.965Z,6.30
2022-12-01T07:34:33.874Z,5.40
2022-12-01T07:37:00.742Z,5.65
2022-12-01T07:39:27.728Z,6.32
2022-12-01T07:41:54.932Z,6.95
2022-12-01T07:44:22.170Z,6.13
2022-12-01T07:46:49.365Z,6.75
2022-12-01T07:49:16.622Z,7.47
2022-12-01T07:51:43.866Z,7.55
2022-12-01T07:54:14.173Z,6.90
2022-12-01T07:56:41.696Z,6.13
2022-12-01T07:59:09.413Z,5.30
2022-12-01T08:01:39.259Z,4.78
2022-12-01T08:04:10.383Z,4.88
2022-12-01T08:06:37.690Z,5.90
2022-12-01T08:09:04.899Z,6.95
2022-12-01T08:11:32.245Z,6.70
2022-12-01T08:13:59.418Z,7.65
2022-12-01T08:16:26.931Z,6.60
2022-12-01T08:18:54.923Z,5.55
2022-12-01T08:21:23.334Z,5.85
2022-12-01T08:23:53.684Z,6.22
2022-12-01T08:26:21.261Z,6.22
2022-12-01T08:28:48.615Z,5.03
2022-12-01T08:31:20.011Z,6.85
2022-12-01T08:33:48.357Z,5.38
2022-12-01T08:36:15.930Z,7.15
2022-12-01T08:38:47.000Z,8.70
2022-12-01T08:41:14.638Z,7.50
2022-12-01T08:44:00.336Z,7.63
2022-12-01T08:46:31.755Z,8.30
2022-12-01T08:48:58.655Z,8.93
2022-12-01T08:51:26.313Z,7.68
2022-12-01T08:53:54.459Z,7.63
2022-12-01T08:56:27.461Z,6.55
2022-12-01T08:58:55.067Z,6.40
2022-12-01T09:01:22.407Z,5.68
2022-12-01T09:04:05.264Z,7.75
2022-12-01T09:06:41.735Z,8.30
2022-12-01T09:09:10.474Z,7.88
2022-12-01T09:11:37.853Z,8.45
2022-12-01T09:14:04.803Z,8.98
2022-12-01T09:16:32.013Z,10.70
2022-12-01T09:18:58.867Z,8.52
2022-12-01T09:21:30.688Z,8.27
2022-12-01T09:23:58.047Z,7.68
2022-12-01T09:26:25.383Z,9.40
2022-12-01T09:29:02.320Z,8.55
2022-12-01T09:31:29.759Z,7.78
2022-12-01T09:34:02.216Z,7.43
2022-12-01T09:36:31.123Z,6.05
2022-12-01T09:38:58.514Z,5.70
2022-12-01T09:41:25.286Z,7.75
2022-12-01T09:44:22.791Z,6.03
2022-12-01T09:46:58.659Z,5.80
2022-12-01T09:49:47.340Z,6.05
2022-12-01T09:52:18.764Z,6.43
2022-12-01T09:54:46.575Z,6.88
2022-12-01T09:57:27.074Z,5.88
2022-12-01T09:59:54.987Z,7.85
2022-12-01T10:02:33.125Z,6.07
2022-12-01T10:05:03.699Z,6.00
2022-12-01T10:07:37.956Z,5.63
2022-12-01T10:10:18.638Z,5.30
2022-12-01T10:12:47.716Z,6.60
2022-12-01T10:15:42.641Z,4.95
2022-12-01T10:18:40.891Z,4.80
2022-12-01T10:21:07.645Z,3.70
2022-12-01T10:23:49.549Z,4.03
2022-12-01T10:26:57.451Z,5.20
2022-12-01T10:29:27.272Z,4.63
2022-12-01T10:32:01.377Z,4.53
2022-12-01T10:34:34.536Z,5.15
2022-12-01T10:37:01.742Z,4.97
2022-12-01T10:39:34.592Z,5.03
2022-12-01T10:42:08.468Z,5.97
2022-12-01T10:44:38.785Z,6.20
2022-12-01T10:47:19.676Z,6.68
2022-12-01T10:49:47.056Z,5.55
2022-12-01T10:52:41.712Z,5.32
2022-12-01T10:55:23.853Z,5.57
2022-12-01T10:57:52.209Z,5.70
2022-12-01T11:00:58.022Z,4.70
2022-12-01T11:03:22.497Z,5.35
2022-12-01T11:05:55.589Z,7.53
2022-12-01T11:08:32.288Z,6.28
2022-12-01T11:10:59.133Z,6.97
2022-12-01T11:13:31.339Z,6.57
2022-12-01T11:16:04.405Z,7.38
2022-12-01T11:18:36.651Z,6.60
2022-12-01T11:21:15.223Z,6.55
2022-12-01T11:23:47.160Z,5.15
2022-12-01T11:26:20.928Z,4.97
2022-12-01T11:29:27.679Z,5.22
2022-12-01T11:31:54.831Z,5.28
2022-12-01T11:34:26.622Z,5.82
2022-12-01T11:36:55.743Z,5.75
2022-12-01T11:39:34.206Z,6.22
2022-12-01T11:42:04.417Z,6.07
2022-12-01T11:44:50.825Z,5.20
2022-12-01T11:47:23.742Z,5.20
2022-12-01T11:50:21.296Z,6.00
2022-12-01T11:52:48.176Z,5.60
2022-12-01T11:55:15.359Z,5.20
2022-12-01T11:57:44.369Z,5.90
2022-12-01T12:00:23.599Z,6.32
2022-12-01T12:03:15.490Z,5.75
2022-12-01T12:06:38.457Z,5.13
2022-12-01T12:09:23.652Z,5.25
2022-12-01T12:12:05.262Z,5.35
2022-12-01T12:15:25.422Z,5.93
2022-12-01T12:18:04.722Z,6.13
2022-12-01T12:20:54.218Z,5.50
2022-12-01T12:23:33.008Z,5.10
2022-12-01T12:26:18.540Z,5.05
2022-12-01T12:28:54.350Z,5.20
2022-12-01T12:31:39.596Z,5.18
2022-12-01T12:34:36.892Z,5.55
2022-12-01T12:37:10.224Z,6.72
2022-12-01T12:40:00.425Z,6.30
2022-12-01T12:42:51.944Z,6.05
2022-12-01T12:45:24.560Z,5.07
2022-12-01T12:47:57.205Z,6.63
2022-12-01T12:50:52.064Z,6.28
2022-12-01T12:53:24.396Z,6.43
2022-12-01T12:55:58.153Z,6.07
2022-12-01T12:58:36.514Z,8.73
2022-12-01T13:01:34.460Z,5.75
2022-12-01T13:04:10.725Z,6.32
2022-12-01T13:06:47.963Z,7.35
2022-12-01T13:09:22.324Z,6.93
2022-12-01T13:11:59.484Z,7.53
2022-12-01T13:14:38.866Z,5.93
2022-12-01T13:17:20.871Z,6.65
2022-12-01T13:19:48.720Z,6.95
2022-12-01T13:22:18.964Z,7.68
2022-12-01T13:24:45.829Z,8.27
2022-12-01T13:27:16.342Z,8.95
2022-12-01T13:29:49.913Z,8.52
2022-12-01T13:32:40.512Z,8.23
2022-12-01T13:35:52.946Z,5.90
2022-12-01T13:38:34.726Z,4.85
2022-12-01T13:41:14.813Z,4.22
2022-12-01T13:44:20.141Z,4.15
2022-12-01T13:46:47.122Z,3.55
2022-12-01T13:49:33.526Z,3.75
2022-12-01T13:52:19.274Z,3.47
2022-12-01T13:55:04.532Z,4.68
2022-12-01T13:57:34.328Z,3.70
2022-12-01T14:00:01.021Z,3.05
2022-12-01T14:02:30.502Z,3.08
2022-12-01T14:05:22.267Z,3.70
2022-12-01T14:07:54.129Z,4.45
2022-12-01T14:10:34.630Z,5.13
2022-12-01T14:13:05.295Z,5.07
2022-12-01T14:15:33.905Z,4.72
2022-12-01T14:18:05.618Z,5.22
2022-12-01T14:20:44.149Z,5.50
2022-12-01T14:23:13.255Z,5.68
2022-12-01T14:25:41.494Z,4.15
2022-12-01T14:28:17.200Z,5.07
2022-12-01T14:30:45.665Z,3.85
2022-12-01T14:33:43.639Z,3.50
2022-12-01T14:36:19.714Z,3.15
2022-12-01T14:38:48.280Z,3.33
2022-12-01T14:41:26.270Z,3.60
2022-12-01T14:44:05.802Z,2.80
2022-12-01T14:46:44.524Z,3.22
2022-12-01T14:49:21.624Z,3.47
2022-12-01T14:51:53.371Z,3.67
2022-12-01T14:54:33.822Z,4.28
2022-12-01T14:57:06.920Z,2.95
2022-12-01T14:59:35.442Z,3.60
2022-12-01T15:02:09.526Z,2.80
2022-12-01T15:05:05.434Z,3.55
2022-12-01T15:07:40.983Z,3.13
2022-12-01T15:10:34.527Z,2.65
2022-12-01T15:13:25.039Z,2.72
2022-12-01T15:16:12.861Z,3.20
2022-12-01T15:18:39.739Z,3.75
2022-12-01T15:21:22.590Z,3.88
2022-12-01T15:24:04.652Z,3.20
2022-12-01T15:26:37.758Z,2.58
2022-12-01T15:29:21.092Z,2.70
2022-12-01T15:31:54.141Z,2.20
2022-12-01T15:34:27.373Z,2.22
2022-12-01T15:36:54.856Z,2.78
2022-12-01T15:39:31.563Z,2.63
2022-12-01T15:41:58.995Z,2.58
2022-12-01T15:44:32.916Z,3.22
2022-12-01T15:47:00.062Z,2.92
2022-12-01T15:49:30.272Z,3.28
2022-12-01T15:52:06.608Z,3.15
2022-12-01T15:54:33.990Z,3.30
2022-12-01T15:57:01.588Z,3.15
2022-12-01T15:59:41.477Z,3.10
2022-12-01T16:02:20.337Z,3.30
2022-12-01T16:04:48.783Z,3.67
2022-12-01T16:07:16.412Z,3.40
2022-12-01T16:10:04.561Z,3.85
2022-12-01T16:12:33.980Z,4.60
2022-12-01T16:15:00.758Z,4.63
2022-12-01T16:17:40.737Z,5.10
2022-12-01T16:20:19.183Z,5.22
2022-12-01T16:23:09.140Z,4.13
2022-12-01T16:25:40.016Z,4.60
2022-12-01T16:28:18.451Z,4.00
2022-12-01T16:30:46.364Z,4.32
2022-12-01T16:33:27.524Z,4.03
2022-12-01T16:35:55.426Z,5.00
2022-12-01T16:38:25.313Z,4.10
2022-12-01T16:40:58.524Z,3.90
2022-12-01T16:43:27.065Z,4.07
2022-12-01T16:46:03.126Z,4.38
2022-12-01T16:48:30.925Z,3.92
2022-12-01T16:51:02.783Z,4.07
2022-12-01T16:53:29.544Z,3.70
2022-12-01T16:55:58.747Z,3.90
2022-12-01T16:58:26.089Z,4.82
2022-12-01T17:00:52.927Z,5.28
2022-12-01T17:03:24.833Z,6.15
2022-12-01T17:05:52.579Z,6.32
2022-12-01T17:08:19.723Z,6.93
2022-12-01T17:10:49.592Z,6.22
2022-12-01T17:13:17.224Z,7.95
2022-12-01T17:15:46.238Z,8.85
2022-12-01T17:18:15.714Z,11.23
2022-12-01T17:20:42.746Z,10.40
2022-12-01T17:23:09.583Z,10.48
2022-12-01T17:25:40.764Z,10.32
2022-12-01T17:28:07.916Z,11.05
2022-12-01T17:30:36.316Z,9.35
2022-12-01T17:33:03.172Z,8.20
2022-12-01T17:35:29.971Z,8.32
2022-12-01T17:37:56.771Z,8.20
2022-12-01T17:40:23.571Z,9.10
2022-12-01T17:42:51.152Z,7.90
2022-12-01T17:45:18.637Z,7.63
2022-12-01T17:47:45.571Z,7.60
2022-12-01T17:50:12.465Z,6.90
2022-12-01T17:52:39.324Z,7.40
2022-12-01T17:55:07.183Z,6.68
2022-12-01T17:57:34.079Z,5.75
2022-12-01T18:00:01.916Z,6.10
2022-12-01T18:02:28.876Z,7.05
2022-12-01T18:04:55.755Z,6.80
2022-12-01T18:07:23.037Z,5.47
2022-12-01T18:09:49.867Z,5.90
2022-12-01T18:12:16.657Z,7.47
2022-12-01T18:14:43.471Z,6.63
2022-12-01T18:17:10.271Z,5.70
2022-12-01T18:19:37.273Z,5.43
2022-12-01T18:22:04.151Z,4.32
2022-12-01T18:24:30.971Z,4.07
2022-12-01T18:26:57.902Z,4.95
2022-12-01T18:29:28.728Z,4.57
2022-12-01T18:31:57.433Z,5.53
2022-12-01T18:34:25.416Z,4.53
2022-12-01T18:36:52.378Z,5.03
2022-12-01T18:39:19.238Z,4.38
2022-12-01T18:41:46.273Z,4.88
2022-12-01T18:44:13.396Z,4.72
2022-12-01T18:46:40.703Z,4.22
2022-12-01T18:49:09.155Z,4.88
2022-12-01T18:51:37.771Z,5.00
2022-12-01T18:54:07.135Z,4.68
2022-12-01T18:56:34.698Z,5.50
2022-12-01T18:59:05.361Z,4.50
2022-12-01T19:01:38.471Z,4.63
2022-12-01T19:04:08.291Z,4.35
2022-12-01T19:06:37.294Z,4.20
2022-12-01T19:09:05.917Z,3.60
2022-12-01T19:11:33.537Z,4.53
2022-12-01T19:14:00.906Z,4.50
2022-12-01T19:16:28.485Z,4.90
2022-12-01T19:18:55.332Z,4.53
2022-12-01T19:21:22.665Z,4.45
2022-12-01T19:23:49.941Z,3.80
2022-12-01T19:26:20.185Z,3.17
2022-12-01T19:28:47.991Z,2.85
2022-12-01T19:31:24.049Z,2.20
2022-12-01T19:33:52.531Z,2.70
2022-12-01T19:36:22.457Z,2.90
2022-12-01T19:38:49.466Z,3.00
2022-12-01T19:41:17.159Z,2.83
2022-12-01T19:43:44.293Z,3.13
2022-12-01T19:46:15.025Z,3.20
2022-12-01T19:48:42.716Z,3.15
2022-12-01T19:51:20.628Z,3.28
2022-12-01T19:53:47.791Z,3.92
2022-12-01T19:56:14.657Z,3.83
2022-12-01T19:58:41.739Z,4.13
2022-12-01T20:01:11.321Z,3.47
2022-12-01T20:03:39.150Z,3.15
2022-12-01T20:06:10.491Z,3.08
2022-12-01T20:08:38.638Z,3.17
2022-12-01T20:11:06.915Z,2.90
2022-12-01T20:13:36.057Z,2.60
2022-12-01T20:16:08.731Z,2.90
2022-12-01T20:18:36.391Z,3.60
2022-12-01T20:21:18.992Z,3.88
2022-12-01T20:23:47.942Z,3.38
2022-12-01T20:26:16.727Z,3.55
2022-12-01T20:28:45.855Z,4.05
2022-12-01T20:31:19.752Z,3.38
2022-12-01T20:33:47.456Z,3.75
2022-12-01T20:36:14.654Z,3.70
2022-12-01T20:38:41.978Z,3.75
2022-12-01T20:41:09.044Z,2.78
2022-12-01T20:43:36.196Z,3.08
2022-12-01T20:46:04.111Z,2.47
2022-12-01T20:48:31.853Z,2.88
2022-12-01T20:51:03.711Z,2.67
2022-12-01T20:53:31.028Z,3.03
2022-12-01T20:56:03.089Z,2.55
2022-12-01T20:58:33.255Z,2.30
2022-12-01T21:01:15.890Z,2.30
2022-12-01T21:03:44.435Z,2.10
2022-12-01T21:06:14.280Z,2.83
2022-12-01T21:08:52.455Z,2.33
2022-12-01T21:11:45.541Z,2.55
2022-12-01T21:14:28.810Z,2.72
2022-12-01T21:17:00.890Z,2.88
2022-12-01T21:19:38.422Z,2.85
2022-12-01T21:22:12.115Z,3.08
2022-12-01T21:24:43.798Z,2.40
2022-12-01T21:27:15.715Z,2.78
2022-12-01T21:29:46.110Z,3.65
2022-12-01T21:32:16.188Z,2.45
2022-12-01T21:34:45.397Z,2.20
2022-12-01T21:37:23.688Z,2.50
2022-12-01T21:39:51.942Z,2.40
2022-12-01T21:42:22.283Z,3.08
2022-12-01T21:44:49.789Z,2.85
2022-12-01T21:47:20.775Z,2.42
2022-12-01T21:49:51.870Z,2.70
2022-12-01T21:52:30.218Z,3.13
2022-12-01T21:55:27.903Z,3.40
2022-12-01T21:57:54.878Z,3.90
2022-12-01T22:00:31.277Z,3.60
2022-12-01T22:03:13.075Z,4.97
2022-12-01T22:06:01.421Z,5.43
2022-12-01T22:08:37.813Z,6.50
2022-12-01T22:11:34.772Z,5.90
2022-12-01T22:14:19.162Z,5.28
2022-12-01T22:17:01.210Z,4.68
2022-12-01T22:19:35.012Z,4.97
2022-12-01T22:22:10.748Z,4.75
2022-12-01T22:24:41.027Z,4.85
2022-12-01T22:27:13.679Z,4.57
2022-12-01T22:29:43.981Z,4.05
2022-12-01T22:32:13.613Z,3.75
2022-12-01T22:34:49.368Z,3.22
2022-12-01T22:37:23.923Z,3.47
2022-12-01T22:39:59.579Z,3.08
2022-12-01T22:42:35.113Z,3.53
2022-12-01T22:45:22.050Z,4.18
2022-12-01T22:47:49.001Z,3.78
2022-12-01T22:50:27.137Z,3.50
2022-12-01T22:52:59.130Z,3.13
2022-12-01T22:55:25.896Z,3.28
2022-12-01T22:57:52.795Z,3.38
2022-12-01T23:00:23.133Z,2.90
2022-12-01T23:02:52.344Z,2.35
2022-12-01T23:05:29.935Z,2.25
2022-12-01T23:07:57.243Z,2.63
2022-12-01T23:10:31.453Z,2.53
2022-12-01T23:13:00.700Z,2.10
2022-12-01T23:15:40.601Z,2.53
2022-12-01T23:18:19.476Z,2.80
2022-12-01T23:21:04.546Z,3.13
2022-12-01T23:23:36.930Z,3.50
2022-12-01T23:26:07.295Z,2.28
2022-12-01T23:28:36.924Z,2.78
2022-12-01T23:31:03.906Z,3.10
2022-12-01T23:33:33.714Z,3.00
2022-12-01T23:36:12.150Z,3.08
2022-12-01T23:38:45.357Z,2.50
2022-12-01T23:41:25.637Z,3.30
2022-12-01T23:43:55.221Z,3.05
2022-12-01T23:46:27.083Z,3.55
2022-12-01T23:49:01.761Z,3.28
2022-12-01T23:51:29.878Z,2.63
2022-12-01T23:53:59.462Z,3.00
2022-12-01T23:56:28.654Z,3.22
2022-12-01T23:58:56.424Z,4.35
